sensor_id;sensor_type;location;lat;lon;timestamp;pressure;altitude;pressure_sealevel;temperature;humidity
64078;BME280;51039;49.696;10.808;2023-04-26T00:01:14;98367.09;;;3.10;89.17
64078;BME280;51039;49.696;10.808;2023-04-26T00:03:40;98369.03;;;3.08;88.98
64078;BME280;51039;49.696;10.808;2023-04-26T00:06:05;98374.59;;;3.05;88.66
64078;BME280;51039;49.696;10.808;2023-04-26T00:08:33;98373.25;;;3.01;89.00
64078;BME280;51039;49.696;10.808;2023-04-26T00:11:01;98370.78;;;2.99;88.86
64078;BME280;51039;49.696;10.808;2023-04-26T00:13:27;98371.59;;;3.00;88.52
64078;BME280;51039;49.696;10.808;2023-04-26T00:15:52;98379.00;;;3.04;87.84
64078;BME280;51039;49.696;10.808;2023-04-26T00:18:17;98376.69;;;3.01;87.52
64078;BME280;51039;49.696;10.808;2023-04-26T00:20:42;98382.06;;;3.00;87.85
64078;BME280;51039;49.696;10.808;2023-04-26T00:23:08;98379.16;;;3.03;87.54
64078;BME280;51039;49.696;10.808;2023-04-26T00:25:34;98383.88;;;2.99;86.89
64078;BME280;51039;49.696;10.808;2023-04-26T00:28:00;98374.38;;;2.98;87.07
64078;BME280;51039;49.696;10.808;2023-04-26T00:30:26;98380.75;;;2.95;86.26
64078;BME280;51039;49.696;10.808;2023-04-26T00:32:51;98373.03;;;2.94;86.35
64078;BME280;51039;49.696;10.808;2023-04-26T00:35:16;98379.41;;;2.91;86.19
64078;BME280;51039;49.696;10.808;2023-04-26T00:37:42;98373.94;;;2.85;86.20
64078;BME280;51039;49.696;10.808;2023-04-26T00:40:07;98376.75;;;2.83;86.51
64078;BME280;51039;49.696;10.808;2023-04-26T00:42:33;98376.50;;;2.77;86.28
64078;BME280;51039;49.696;10.808;2023-04-26T00:44:58;98370.09;;;2.71;86.50
64078;BME280;51039;49.696;10.808;2023-04-26T00:47:24;98371.94;;;2.79;86.14
64078;BME280;51039;49.696;10.808;2023-04-26T00:49:49;98372.63;;;2.81;86.11
64078;BME280;51039;49.696;10.808;2023-04-26T00:52:15;98371.91;;;2.70;86.27
64078;BME280;51039;49.696;10.808;2023-04-26T00:54:40;98373.56;;;2.71;86.20
64078;BME280;51039;49.696;10.808;2023-04-26T00:57:05;98371.19;;;2.60;86.75
64078;BME280;51039;49.696;10.808;2023-04-26T00:59:33;98370.34;;;2.60;86.74
64078;BME280;51039;49.696;10.808;2023-04-26T01:02:01;98367.22;;;2.56;86.94
64078;BME280;51039;49.696;10.808;2023-04-26T01:04:27;98369.00;;;2.55;87.10
64078;BME280;51039;49.696;10.808;2023-04-26T01:06:54;98373.47;;;2.63;86.68
64078;BME280;51039;49.696;10.808;2023-04-26T01:09:20;98378.03;;;2.61;86.39
64078;BME280;51039;49.696;10.808;2023-04-26T01:11:45;98370.84;;;2.63;86.44
64078;BME280;51039;49.696;10.808;2023-04-26T01:14:11;98369.16;;;2.54;86.08
64078;BME280;51039;49.696;10.808;2023-04-26T01:16:38;98378.25;;;2.50;86.58
64078;BME280;51039;49.696;10.808;2023-04-26T01:19:08;98376.72;;;2.39;86.85
64078;BME280;51039;49.696;10.808;2023-04-26T01:21:36;98376.88;;;2.38;87.19
64078;BME280;51039;49.696;10.808;2023-04-26T01:24:02;98380.09;;;2.31;86.95
64078;BME280;51039;49.696;10.808;2023-04-26T01:26:27;98383.78;;;2.29;87.24
64078;BME280;51039;49.696;10.808;2023-04-26T01:28:53;98378.88;;;2.26;87.49
64078;BME280;51039;49.696;10.808;2023-04-26T01:31:18;98391.44;;;2.22;87.64
64078;BME280;51039;49.696;10.808;2023-04-26T01:33:43;98393.06;;;2.23;87.85
64078;BME280;51039;49.696;10.808;2023-04-26T01:36:08;98385.47;;;2.12;88.32
64078;BME280;51039;49.696;10.808;2023-04-26T01:38:36;98380.06;;;2.13;88.45
64078;BME280;51039;49.696;10.808;2023-04-26T01:41:02;98390.22;;;2.16;88.14
64078;BME280;51039;49.696;10.808;2023-04-26T01:43:27;98391.50;;;2.12;88.96
64078;BME280;51039;49.696;10.808;2023-04-26T01:45:53;98392.63;;;2.10;88.93
64078;BME280;51039;49.696;10.808;2023-04-26T01:48:18;98398.81;;;2.09;89.21
64078;BME280;51039;49.696;10.808;2023-04-26T01:50:43;98399.41;;;2.03;89.68
64078;BME280;51039;49.696;10.808;2023-04-26T01:53:09;98411.78;;;2.01;91.14
64078;BME280;51039;49.696;10.808;2023-04-26T01:55:34;98405.03;;;1.98;91.62
64078;BME280;51039;49.696;10.808;2023-04-26T01:57:59;98406.63;;;1.91;91.67
64078;BME280;51039;49.696;10.808;2023-04-26T02:00:25;98407.03;;;1.86;92.50
64078;BME280;51039;49.696;10.808;2023-04-26T02:02:55;98399.94;;;1.79;92.59
64078;BME280;51039;49.696;10.808;2023-04-26T02:05:21;98406.72;;;1.71;92.55
64078;BME280;51039;49.696;10.808;2023-04-26T02:07:47;98401.19;;;1.74;93.19
64078;BME280;51039;49.696;10.808;2023-04-26T02:10:12;98400.66;;;1.71;92.42
64078;BME280;51039;49.696;10.808;2023-04-26T02:12:37;98399.63;;;1.64;92.88
64078;BME280;51039;49.696;10.808;2023-04-26T02:15:03;98398.50;;;1.66;93.20
64078;BME280;51039;49.696;10.808;2023-04-26T02:17:29;98397.09;;;1.72;92.92
64078;BME280;51039;49.696;10.808;2023-04-26T02:19:54;98394.41;;;1.64;92.71
64078;BME280;51039;49.696;10.808;2023-04-26T02:22:20;98392.50;;;1.56;92.78
64078;BME280;51039;49.696;10.808;2023-04-26T02:24:49;98390.31;;;1.51;92.48
64078;BME280;51039;49.696;10.808;2023-04-26T02:27:14;98387.56;;;1.53;92.43
64078;BME280;51039;49.696;10.808;2023-04-26T02:29:40;98390.31;;;1.51;92.69
64078;BME280;51039;49.696;10.808;2023-04-26T02:32:05;98392.94;;;1.51;92.82
64078;BME280;51039;49.696;10.808;2023-04-26T02:34:31;98396.78;;;1.47;93.09
64078;BME280;51039;49.696;10.808;2023-04-26T02:36:56;98396.03;;;1.37;93.76
64078;BME280;51039;49.696;10.808;2023-04-26T02:39:22;98402.72;;;1.40;93.87
64078;BME280;51039;49.696;10.808;2023-04-26T02:41:47;98403.28;;;1.43;93.66
64078;BME280;51039;49.696;10.808;2023-04-26T02:44:13;98395.34;;;1.35;94.13
64078;BME280;51039;49.696;10.808;2023-04-26T02:46:38;98396.28;;;1.34;93.87
64078;BME280;51039;49.696;10.808;2023-04-26T02:49:03;98403.59;;;1.30;94.01
64078;BME280;51039;49.696;10.808;2023-04-26T02:51:29;98405.50;;;1.28;94.16
64078;BME280;51039;49.696;10.808;2023-04-26T02:53:54;98390.97;;;1.26;94.20
64078;BME280;51039;49.696;10.808;2023-04-26T02:56:19;98391.66;;;1.28;94.66
64078;BME280;51039;49.696;10.808;2023-04-26T02:58:45;98398.13;;;1.24;94.78
64078;BME280;51039;49.696;10.808;2023-04-26T03:01:11;98398.41;;;1.21;95.00
64078;BME280;51039;49.696;10.808;2023-04-26T03:03:37;98394.69;;;1.13;94.92
64078;BME280;51039;49.696;10.808;2023-04-26T03:06:03;98404.75;;;1.08;95.56
64078;BME280;51039;49.696;10.808;2023-04-26T03:08:28;98406.00;;;1.04;95.43
64078;BME280;51039;49.696;10.808;2023-04-26T03:10:53;98408.06;;;1.01;95.32
64078;BME280;51039;49.696;10.808;2023-04-26T03:13:21;98404.91;;;0.97;95.74
64078;BME280;51039;49.696;10.808;2023-04-26T03:15:47;98406.72;;;0.96;96.12
64078;BME280;51039;49.696;10.808;2023-04-26T03:18:13;98407.78;;;0.94;95.63
64078;BME280;51039;49.696;10.808;2023-04-26T03:20:39;98410.03;;;0.89;95.83
64078;BME280;51039;49.696;10.808;2023-04-26T03:23:05;98411.38;;;0.93;96.31
64078;BME280;51039;49.696;10.808;2023-04-26T03:25:31;98411.94;;;0.87;96.12
64078;BME280;51039;49.696;10.808;2023-04-26T03:27:57;98409.75;;;0.82;96.22
64078;BME280;51039;49.696;10.808;2023-04-26T03:30:23;98414.41;;;0.78;96.27
64078;BME280;51039;49.696;10.808;2023-04-26T03:32:48;98412.50;;;0.71;96.57
64078;BME280;51039;49.696;10.808;2023-04-26T03:35:13;98414.84;;;0.74;96.33
64078;BME280;51039;49.696;10.808;2023-04-26T03:37:39;98410.56;;;0.73;96.34
64078;BME280;51039;49.696;10.808;2023-04-26T03:40:05;98418.81;;;0.68;96.17
64078;BME280;51039;49.696;10.808;2023-04-26T03:42:32;98416.63;;;0.54;96.45
64078;BME280;51039;49.696;10.808;2023-04-26T03:44:58;98424.03;;;0.49;97.03
64078;BME280;51039;49.696;10.808;2023-04-26T03:47:23;98430.19;;;0.48;97.41
64078;BME280;51039;49.696;10.808;2023-04-26T03:49:48;98424.31;;;0.46;97.22
64078;BME280;51039;49.696;10.808;2023-04-26T03:52:13;98420.88;;;0.45;97.42
64078;BME280;51039;49.696;10.808;2023-04-26T03:54:39;98426.78;;;0.47;97.40
64078;BME280;51039;49.696;10.808;2023-04-26T03:57:04;98433.09;;;0.45;96.66
64078;BME280;51039;49.696;10.808;2023-04-26T03:59:29;98427.59;;;0.48;97.15
64078;BME280;51039;49.696;10.808;2023-04-26T04:01:55;98425.66;;;0.40;97.72
64078;BME280;51039;49.696;10.808;2023-04-26T04:04:20;98427.19;;;0.33;97.43
64078;BME280;51039;49.696;10.808;2023-04-26T04:06:45;98429.25;;;0.29;97.33
64078;BME280;51039;49.696;10.808;2023-04-26T04:09:11;98428.00;;;0.33;97.79
64078;BME280;51039;49.696;10.808;2023-04-26T04:11:36;98427.88;;;0.45;97.26
64078;BME280;51039;49.696;10.808;2023-04-26T04:14:01;98429.25;;;0.49;96.58
64078;BME280;51039;49.696;10.808;2023-04-26T04:16:27;98430.63;;;0.53;96.49
64078;BME280;51039;49.696;10.808;2023-04-26T04:18:52;98426.50;;;0.60;96.13
64078;BME280;51039;49.696;10.808;2023-04-26T04:21:18;98433.22;;;0.72;95.70
64078;BME280;51039;49.696;10.808;2023-04-26T04:23:43;98438.00;;;0.77;95.15
64078;BME280;51039;49.696;10.808;2023-04-26T04:26:08;98432.41;;;0.82;95.50
64078;BME280;51039;49.696;10.808;2023-04-26T04:28:36;98443.06;;;0.98;95.03
64078;BME280;51039;49.696;10.808;2023-04-26T04:31:02;98448.44;;;1.06;94.55
64078;BME280;51039;49.696;10.808;2023-04-26T04:33:27;98445.59;;;1.37;94.28
64078;BME280;51039;49.696;10.808;2023-04-26T04:35:53;98453.88;;;1.98;92.27
64078;BME280;51039;49.696;10.808;2023-04-26T04:38:19;98447.44;;;2.38;89.40
64078;BME280;51039;49.696;10.808;2023-04-26T04:40:46;98443.25;;;2.81;88.02
64078;BME280;51039;49.696;10.808;2023-04-26T04:43:13;98447.31;;;3.45;84.65
64078;BME280;51039;49.696;10.808;2023-04-26T04:45:39;98453.22;;;4.32;80.12
64078;BME280;51039;49.696;10.808;2023-04-26T04:48:05;98452.13;;;5.17;75.68
64078;BME280;51039;49.696;10.808;2023-04-26T04:50:30;98453.94;;;5.89;72.86
64078;BME280;51039;49.696;10.808;2023-04-26T04:52:56;98460.47;;;6.01;70.58
64078;BME280;51039;49.696;10.808;2023-04-26T04:55:21;98454.78;;;6.75;68.95
64078;BME280;51039;49.696;10.808;2023-04-26T04:57:46;98456.19;;;6.86;67.09
64078;BME280;51039;49.696;10.808;2023-04-26T05:00:12;98454.34;;;7.77;64.53
64078;BME280;51039;49.696;10.808;2023-04-26T05:02:38;98465.63;;;8.52;61.59
64078;BME280;51039;49.696;10.808;2023-04-26T05:05:03;98457.84;;;8.87;60.04
64078;BME280;51039;49.696;10.808;2023-04-26T05:07:33;98465.19;;;9.13;58.19
64078;BME280;51039;49.696;10.808;2023-04-26T05:09:59;98462.66;;;9.55;57.41
64078;BME280;51039;49.696;10.808;2023-04-26T05:12:25;98472.63;;;9.88;55.74
64078;BME280;51039;49.696;10.808;2023-04-26T05:14:50;98469.50;;;10.12;55.74
64078;BME280;51039;49.696;10.808;2023-04-26T05:17:16;98481.75;;;10.27;54.58
64078;BME280;51039;49.696;10.808;2023-04-26T05:19:41;98473.09;;;10.46;54.03
64078;BME280;51039;49.696;10.808;2023-04-26T05:22:06;98476.25;;;10.96;51.78
64078;BME280;51039;49.696;10.808;2023-04-26T05:24:32;98471.34;;;11.73;50.36
64078;BME280;51039;49.696;10.808;2023-04-26T05:26:58;98474.38;;;12.49;48.38
64078;BME280;51039;49.696;10.808;2023-04-26T05:29:23;98474.19;;;11.92;48.96
64078;BME280;51039;49.696;10.808;2023-04-26T05:31:52;98479.56;;;11.45;49.72
64078;BME280;51039;49.696;10.808;2023-04-26T05:34:17;98483.94;;;12.11;48.63
64078;BME280;51039;49.696;10.808;2023-04-26T05:36:43;98475.88;;;11.53;49.27
64078;BME280;51039;49.696;10.808;2023-04-26T05:39:08;98491.84;;;10.03;54.26
64078;BME280;51039;49.696;10.808;2023-04-26T05:41:33;98492.75;;;9.54;55.50
64078;BME280;51039;49.696;10.808;2023-04-26T05:43:59;98485.72;;;9.68;56.33
64078;BME280;51039;49.696;10.808;2023-04-26T05:46:24;98489.09;;;9.55;56.57
64078;BME280;51039;49.696;10.808;2023-04-26T05:48:50;98489.81;;;8.92;58.49
64078;BME280;51039;49.696;10.808;2023-04-26T05:51:15;98492.47;;;10.12;56.01
64078;BME280;51039;49.696;10.808;2023-04-26T05:53:41;98491.25;;;12.23;50.63
64078;BME280;51039;49.696;10.808;2023-04-26T05:56:06;98503.00;;;11.68;51.01
64078;BME280;51039;49.696;10.808;2023-04-26T05:58:31;98502.16;;;13.48;47.82
64078;BME280;51039;49.696;10.808;2023-04-26T06:00:57;98498.13;;;14.75;44.23
64078;BME280;51039;49.696;10.808;2023-04-26T06:03:23;98498.06;;;15.47;42.23
64078;BME280;51039;49.696;10.808;2023-04-26T06:05:48;98497.63;;;16.09;40.47
64078;BME280;51039;49.696;10.808;2023-04-26T06:08:13;98505.66;;;16.79;39.15
64078;BME280;51039;49.696;10.808;2023-04-26T06:10:39;98511.16;;;17.01;38.79
64078;BME280;51039;49.696;10.808;2023-04-26T06:13:04;98509.38;;;17.06;38.18
64078;BME280;51039;49.696;10.808;2023-04-26T06:15:30;98511.34;;;17.45;37.18
64078;BME280;51039;49.696;10.808;2023-04-26T06:17:55;98516.84;;;17.72;36.89
64078;BME280;51039;49.696;10.808;2023-04-26T06:20:21;98514.25;;;18.33;35.59
64078;BME280;51039;49.696;10.808;2023-04-26T06:22:46;98512.69;;;18.37;34.96
64078;BME280;51039;49.696;10.808;2023-04-26T06:25:12;98513.97;;;18.57;34.60
64078;BME280;51039;49.696;10.808;2023-04-26T06:27:37;98504.81;;;18.09;35.50
64078;BME280;51039;49.696;10.808;2023-04-26T06:30:03;98503.34;;;18.89;34.24
64078;BME280;51039;49.696;10.808;2023-04-26T06:32:30;98503.09;;;19.50;33.21
64078;BME280;51039;49.696;10.808;2023-04-26T06:34:55;98509.78;;;19.48;33.03
64078;BME280;51039;49.696;10.808;2023-04-26T06:37:20;98516.31;;;19.99;32.59
64078;BME280;51039;49.696;10.808;2023-04-26T06:39:45;98515.59;;;19.07;33.99
64078;BME280;51039;49.696;10.808;2023-04-26T06:42:11;98518.41;;;18.90;34.23
64078;BME280;51039;49.696;10.808;2023-04-26T06:44:36;98505.78;;;19.50;32.31
64078;BME280;51039;49.696;10.808;2023-04-26T06:47:01;98505.91;;;20.76;31.25
64078;BME280;51039;49.696;10.808;2023-04-26T06:49:27;98504.63;;;21.05;31.00
64078;BME280;51039;49.696;10.808;2023-04-26T06:51:52;98513.78;;;20.25;31.28
64078;BME280;51039;49.696;10.808;2023-04-26T06:54:18;98511.09;;;21.86;28.93
64078;BME280;51039;49.696;10.808;2023-04-26T06:56:44;98514.41;;;20.43;30.46
64078;BME280;51039;49.696;10.808;2023-04-26T06:59:09;98507.84;;;20.28;30.44
64078;BME280;51039;49.696;10.808;2023-04-26T07:01:34;98508.69;;;21.53;28.72
64078;BME280;51039;49.696;10.808;2023-04-26T07:04:00;98509.22;;;21.55;30.05
64078;BME280;51039;49.696;10.808;2023-04-26T07:06:27;98499.72;;;21.94;29.01
64078;BME280;51039;49.696;10.808;2023-04-26T07:08:53;98514.78;;;22.26;28.16
64078;BME280;51039;49.696;10.808;2023-04-26T07:11:19;98507.63;;;22.55;27.22
64078;BME280;51039;49.696;10.808;2023-04-26T07:13:45;98513.09;;;22.95;27.11
64078;BME280;51039;49.696;10.808;2023-04-26T07:16:10;98512.81;;;22.42;27.18
64078;BME280;51039;49.696;10.808;2023-04-26T07:18:35;98509.53;;;23.10;27.10
64078;BME280;51039;49.696;10.808;2023-04-26T07:21:01;98510.25;;;22.71;26.75
64078;BME280;51039;49.696;10.808;2023-04-26T07:23:27;98509.44;;;22.70;27.45
64078;BME280;51039;49.696;10.808;2023-04-26T07:25:53;98511.97;;;23.06;26.19
64078;BME280;51039;49.696;10.808;2023-04-26T07:28:19;98515.47;;;23.02;26.86
64078;BME280;51039;49.696;10.808;2023-04-26T07:30:44;98511.63;;;23.52;26.35
64078;BME280;51039;49.696;10.808;2023-04-26T07:33:10;98508.69;;;23.09;26.86
64078;BME280;51039;49.696;10.808;2023-04-26T07:35:35;98510.94;;;22.92;27.62
64078;BME280;51039;49.696;10.808;2023-04-26T07:38:00;98506.97;;;23.87;26.27
64078;BME280;51039;49.696;10.808;2023-04-26T07:40:26;98496.28;;;24.25;24.49
64078;BME280;51039;49.696;10.808;2023-04-26T07:42:53;98514.31;;;22.73;25.59
64078;BME280;51039;49.696;10.808;2023-04-26T07:45:18;98514.56;;;22.77;27.01
64078;BME280;51039;49.696;10.808;2023-04-26T07:47:44;98510.75;;;22.83;26.92
64078;BME280;51039;49.696;10.808;2023-04-26T07:50:09;98506.28;;;18.88;30.51
64078;BME280;51039;49.696;10.808;2023-04-26T07:52:35;98501.13;;;16.79;33.22
64078;BME280;51039;49.696;10.808;2023-04-26T07:55:00;98512.03;;;15.85;35.16
64078;BME280;51039;49.696;10.808;2023-04-26T07:57:26;98506.19;;;15.52;36.44
64078;BME280;51039;49.696;10.808;2023-04-26T07:59:51;98511.03;;;14.41;35.93
64078;BME280;51039;49.696;10.808;2023-04-26T08:02:16;98516.53;;;12.84;38.60
64078;BME280;51039;49.696;10.808;2023-04-26T08:04:46;98511.72;;;13.31;38.57
64078;BME280;51039;49.696;10.808;2023-04-26T08:07:16;98520.13;;;17.23;33.28
64078;BME280;51039;49.696;10.808;2023-04-26T08:09:42;98518.84;;;20.11;30.47
64078;BME280;51039;49.696;10.808;2023-04-26T08:12:07;98520.47;;;22.14;28.25
64078;BME280;51039;49.696;10.808;2023-04-26T08:14:36;98514.78;;;22.15;27.82
64078;BME280;51039;49.696;10.808;2023-04-26T08:17:02;98520.50;;;22.04;27.24
64078;BME280;51039;49.696;10.808;2023-04-26T08:19:28;98512.94;;;22.76;25.73
64078;BME280;51039;49.696;10.808;2023-04-26T08:21:55;98512.03;;;22.91;26.52
64078;BME280;51039;49.696;10.808;2023-04-26T08:24:21;98511.31;;;23.88;24.30
64078;BME280;51039;49.696;10.808;2023-04-26T08:26:46;98511.25;;;24.18;22.76
64078;BME280;51039;49.696;10.808;2023-04-26T08:29:12;98509.69;;;23.24;24.34
64078;BME280;51039;49.696;10.808;2023-04-26T08:31:38;98506.78;;;21.03;26.72
64078;BME280;51039;49.696;10.808;2023-04-26T08:34:04;98500.47;;;20.61;26.32
64078;BME280;51039;49.696;10.808;2023-04-26T08:36:29;98499.75;;;20.18;28.43
64078;BME280;51039;49.696;10.808;2023-04-26T08:38:56;98506.16;;;18.77;31.27
64078;BME280;51039;49.696;10.808;2023-04-26T08:41:22;98504.81;;;16.61;33.92
64078;BME280;51039;49.696;10.808;2023-04-26T08:43:50;98503.50;;;15.41;36.27
64078;BME280;51039;49.696;10.808;2023-04-26T08:46:18;98510.13;;;15.26;36.33
64078;BME280;51039;49.696;10.808;2023-04-26T08:48:43;98509.34;;;14.96;37.60
64078;BME280;51039;49.696;10.808;2023-04-26T08:51:14;98505.28;;;14.63;37.75
64078;BME280;51039;49.696;10.808;2023-04-26T08:53:41;98510.00;;;15.45;37.54
64078;BME280;51039;49.696;10.808;2023-04-26T08:56:07;98502.94;;;16.21;35.10
64078;BME280;51039;49.696;10.808;2023-04-26T08:58:34;98505.19;;;16.41;34.06
64078;BME280;51039;49.696;10.808;2023-04-26T09:01:02;98505.88;;;18.30;32.42
64078;BME280;51039;49.696;10.808;2023-04-26T09:03:28;98507.47;;;19.67;29.80
64078;BME280;51039;49.696;10.808;2023-04-26T09:05:53;98503.81;;;20.94;27.05
64078;BME280;51039;49.696;10.808;2023-04-26T09:08:19;98495.31;;;20.44;26.03
64078;BME280;51039;49.696;10.808;2023-04-26T09:10:46;98496.72;;;20.62;27.05
64078;BME280;51039;49.696;10.808;2023-04-26T09:13:11;98490.31;;;20.73;29.74
64078;BME280;51039;49.696;10.808;2023-04-26T09:15:36;98487.31;;;20.59;27.73
64078;BME280;51039;49.696;10.808;2023-04-26T09:18:15;98480.13;;;20.17;26.92
64078;BME280;51039;49.696;10.808;2023-04-26T09:20:45;98483.69;;;18.12;29.64
64078;BME280;51039;49.696;10.808;2023-04-26T09:23:10;98489.94;;;15.89;30.96
64078;BME280;51039;49.696;10.808;2023-04-26T09:25:36;98489.88;;;13.72;32.28
64078;BME280;51039;49.696;10.808;2023-04-26T09:28:02;98494.84;;;13.87;32.37
64078;BME280;51039;49.696;10.808;2023-04-26T09:30:28;98494.44;;;14.76;32.52
64078;BME280;51039;49.696;10.808;2023-04-26T09:35:34;98484.31;;;18.91;27.86
64078;BME280;51039;49.696;10.808;2023-04-26T09:38:11;98479.00;;;18.74;27.61
64078;BME280;51039;49.696;10.808;2023-04-26T09:40:41;98479.53;;;18.71;27.84
64078;BME280;51039;49.696;10.808;2023-04-26T09:43:20;98479.81;;;18.03;27.12
64078;BME280;51039;49.696;10.808;2023-04-26T09:45:47;98481.31;;;17.77;27.10
64078;BME280;51039;49.696;10.808;2023-04-26T09:48:25;98485.53;;;17.73;27.72
64078;BME280;51039;49.696;10.808;2023-04-26T09:50:55;98483.03;;;17.49;26.91
64078;BME280;51039;49.696;10.808;2023-04-26T09:53:29;98481.09;;;19.21;26.82
64078;BME280;51039;49.696;10.808;2023-04-26T09:55:55;98478.50;;;19.31;26.28
64078;BME280;51039;49.696;10.808;2023-04-26T09:58:29;98473.56;;;19.93;24.58
64078;BME280;51039;49.696;10.808;2023-04-26T10:00:54;98470.91;;;19.60;25.71
64078;BME280;51039;49.696;10.808;2023-04-26T10:03:21;98474.94;;;18.00;26.61
64078;BME280;51039;49.696;10.808;2023-04-26T10:05:47;98465.03;;;17.61;26.13
64078;BME280;51039;49.696;10.808;2023-04-26T10:08:13;98476.94;;;14.80;27.96
64078;BME280;51039;49.696;10.808;2023-04-26T10:10:38;98479.75;;;14.18;30.01
64078;BME280;51039;49.696;10.808;2023-04-26T10:13:06;98484.34;;;14.11;31.85
64078;BME280;51039;49.696;10.808;2023-04-26T10:15:31;98481.41;;;14.68;31.18
64078;BME280;51039;49.696;10.808;2023-04-26T10:17:56;98483.59;;;14.04;30.93
64078;BME280;51039;49.696;10.808;2023-04-26T10:20:22;98482.50;;;14.30;32.47
64078;BME280;51039;49.696;10.808;2023-04-26T10:22:52;98473.28;;;14.44;30.76
64078;BME280;51039;49.696;10.808;2023-04-26T10:25:46;98479.53;;;14.20;31.51
64078;BME280;51039;49.696;10.808;2023-04-26T10:28:11;98481.00;;;16.07;31.12
64078;BME280;51039;49.696;10.808;2023-04-26T10:33:34;98473.47;;;15.69;29.68
64078;BME280;51039;49.696;10.808;2023-04-26T10:38:38;98478.34;;;14.16;33.71
64078;BME280;51039;49.696;10.808;2023-04-26T10:41:30;98477.31;;;13.29;33.17
64078;BME280;51039;49.696;10.808;2023-04-26T10:43:58;98473.34;;;12.88;34.02
64078;BME280;51039;49.696;10.808;2023-04-26T10:46:48;98473.81;;;12.79;31.98
64078;BME280;51039;49.696;10.808;2023-04-26T10:49:15;98469.03;;;13.19;31.36
64078;BME280;51039;49.696;10.808;2023-04-26T10:54:52;98477.44;;;13.41;33.43
64078;BME280;51039;49.696;10.808;2023-04-26T11:00:52;98471.22;;;14.46;34.36
64078;BME280;51039;49.696;10.808;2023-04-26T11:03:05;98465.75;;;15.14;30.22
64078;BME280;51039;49.696;10.808;2023-04-26T11:05:33;98455.13;;;15.61;30.84
64078;BME280;51039;49.696;10.808;2023-04-26T11:08:14;98456.66;;;14.91;31.23
64078;BME280;51039;49.696;10.808;2023-04-26T11:10:39;98463.41;;;13.96;31.53
64078;BME280;51039;49.696;10.808;2023-04-26T11:13:05;98464.47;;;14.62;33.76
64078;BME280;51039;49.696;10.808;2023-04-26T11:15:30;98465.72;;;14.60;31.84
64078;BME280;51039;49.696;10.808;2023-04-26T11:17:56;98463.66;;;13.51;33.55
64078;BME280;51039;49.696;10.808;2023-04-26T11:20:27;98467.09;;;13.77;34.09
64078;BME280;51039;49.696;10.808;2023-04-26T11:22:53;98457.03;;;14.64;33.44
64078;BME280;51039;49.696;10.808;2023-04-26T11:25:18;98453.28;;;14.53;34.32
64078;BME280;51039;49.696;10.808;2023-04-26T11:27:44;98446.38;;;14.34;34.46
64078;BME280;51039;49.696;10.808;2023-04-26T11:30:10;98452.38;;;14.78;34.09
64078;BME280;51039;49.696;10.808;2023-04-26T11:32:36;98449.19;;;15.23;33.56
64078;BME280;51039;49.696;10.808;2023-04-26T11:35:01;98449.28;;;16.11;32.65
64078;BME280;51039;49.696;10.808;2023-04-26T11:37:27;98438.59;;;15.99;30.16
64078;BME280;51039;49.696;10.808;2023-04-26T11:39:52;98435.06;;;16.22;34.19
64078;BME280;51039;49.696;10.808;2023-04-26T11:42:18;98433.88;;;16.59;32.49
64078;BME280;51039;49.696;10.808;2023-04-26T11:44:49;98428.22;;;16.15;32.19
64078;BME280;51039;49.696;10.808;2023-04-26T11:47:15;98430.03;;;15.85;32.16
64078;BME280;51039;49.696;10.808;2023-04-26T11:49:42;98424.44;;;14.92;33.70
64078;BME280;51039;49.696;10.808;2023-04-26T11:52:07;98430.09;;;14.84;34.43
64078;BME280;51039;49.696;10.808;2023-04-26T11:54:34;98433.06;;;14.16;35.10
64078;BME280;51039;49.696;10.808;2023-04-26T11:57:11;98427.72;;;14.64;34.70
64078;BME280;51039;49.696;10.808;2023-04-26T11:59:38;98429.22;;;14.30;34.74
64078;BME280;51039;49.696;10.808;2023-04-26T12:02:06;98431.72;;;14.25;34.78
64078;BME280;51039;49.696;10.808;2023-04-26T12:04:32;98435.88;;;14.81;33.96
64078;BME280;51039;49.696;10.808;2023-04-26T12:06:58;98432.66;;;14.91;33.45
64078;BME280;51039;49.696;10.808;2023-04-26T12:09:27;98429.22;;;14.30;32.92
64078;BME280;51039;49.696;10.808;2023-04-26T12:11:57;98426.78;;;15.71;33.01
64078;BME280;51039;49.696;10.808;2023-04-26T12:14:33;98424.91;;;15.72;33.14
64078;BME280;51039;49.696;10.808;2023-04-26T12:17:00;98424.31;;;16.05;30.67
64078;BME280;51039;49.696;10.808;2023-04-26T12:19:27;98432.81;;;16.31;33.34
64078;BME280;51039;49.696;10.808;2023-04-26T12:21:53;98428.53;;;15.78;32.87
64078;BME280;51039;49.696;10.808;2023-04-26T12:24:23;98424.06;;;16.19;33.00
64078;BME280;51039;49.696;10.808;2023-04-26T12:26:50;98424.72;;;15.74;32.61
64078;BME280;51039;49.696;10.808;2023-04-26T12:29:16;98420.63;;;15.36;30.64
64078;BME280;51039;49.696;10.808;2023-04-26T12:31:41;98416.50;;;16.44;30.76
64078;BME280;51039;49.696;10.808;2023-04-26T12:34:07;98415.97;;;16.76;31.43
64078;BME280;51039;49.696;10.808;2023-04-26T12:36:32;98413.47;;;16.12;29.17
64078;BME280;51039;49.696;10.808;2023-04-26T12:38:57;98419.53;;;16.07;30.13
64078;BME280;51039;49.696;10.808;2023-04-26T12:41:24;98419.31;;;16.09;30.77
64078;BME280;51039;49.696;10.808;2023-04-26T12:43:50;98418.75;;;15.95;32.95
64078;BME280;51039;49.696;10.808;2023-04-26T12:46:15;98411.44;;;16.31;31.31
64078;BME280;51039;49.696;10.808;2023-04-26T12:48:40;98406.91;;;16.77;32.37
64078;BME280;51039;49.696;10.808;2023-04-26T12:51:06;98403.56;;;16.70;32.49
64078;BME280;51039;49.696;10.808;2023-04-26T12:53:31;98405.34;;;16.47;32.16
64078;BME280;51039;49.696;10.808;2023-04-26T12:55:56;98408.59;;;15.21;31.65
64078;BME280;51039;49.696;10.808;2023-04-26T12:58:22;98404.38;;;15.84;32.03
64078;BME280;51039;49.696;10.808;2023-04-26T13:00:47;98405.19;;;15.85;31.89
64078;BME280;51039;49.696;10.808;2023-04-26T13:03:15;98399.31;;;16.12;32.14
64078;BME280;51039;49.696;10.808;2023-04-26T13:05:40;98401.78;;;16.59;32.46